North Platte Regional Airport Lee Bird Field
KLBF : now visible

Airfield :











YOU CAN JOIN US ON...

 
LOGIN :

Register | Disclaimer

   EN    FR    IT 

 









Legend :    VFR   Marginal VFR   IFR   Intensive IFR   Very Intensive IFR
Visi :
Ceiling :
>= 8 km
>= 3000ft
5 to 8 km
1000 to 3000 ft
1500m to 5 km
500 to 1000 ft
800 to 1500m
200 to 500 ft
< 800m
< 200 ft
Symbols :   Thunderstorms  Fog  Heavy snow  Heavy precipitations  Wind > 20 kt






- Airport Elevation : 2777 ft
- IATA code : LBF


KLBF - North Platte Regional Lee Bird Field

CURRENT METAR :
  • 292253Z AUTO 15014G28KT 10SM FEW065 26/12 A2994 RMK AO2 PK WND 16029/2209 SLP121 T02610122

EXPIRED METARs :
  • 292153Z AUTO 14016G33KT 10SM CLR 28/13 A2996 RMK AO2 PK WND 16033/2148 SLP124 T02780128
  • 292053Z AUTO 14012G23KT 10SM FEW060 28/13 A2999 RMK AO2 PK WND 16028/2031 SLP137 T02780133 57029
  • 291953Z AUTO 16013G23KT 10SM CLR 27/13 A3002 RMK AO2 PK WND 13028/1932 SLP149 T02720133

TAF KLBF
Valid from the 30 at 00:00 until the 31 at 00:00 UTC


292335Z 3000/3024 15012G23KT P6SM OVC200
FM300400 15012G18KT P6SM -TSRA SCT040 OVC070CB
FM300600 16012KT P6SM SCT070 OVC200
FM301200 17009KT P6SM BKN035
FM301800 02008KT P6SM SCT040 BKN080
KZDV FIR / North America



MET'MAP, your aeronautical weather chart ! - Copyright ORBIFLY December 2007 - Disclaimer

ORBIFLY MET'MAP TEAM :

Programming & Development : Alexandra Zaïnal
Original concept : Baudouin d'Aumeries
Technical & hardware support : Manuel Goepfert
Assistance : Marc-Olivier Méhu




SOURCES & CREDITS :

   NOAA       Earth
Advisory